KLM225 EHAM-KMIA
Flight info
| Callsign | KLM225 |
|---|---|
| Flight time | N/A |
| Altitude | 38000 |
| Route | BERGI L60 PENIL M144 BAGSO DCT NEBIN/M082F390 NATD SAXAN/M080F400 DCT VITOL/N0455F400 DCT KAYYT/M079F400 DCT SQUAD DCT ATUGI M201 VIRST Y494 WHOOS/N0452F400 Y494 WEAKK DCT HOAGG BNFSH2 |
| Aircraft | A333/H-SDE3GHIJ2J3J5M1RVWXY/LB2D1 |
Departure
| Time | 2026-04-18 09:49 |
|---|---|
| Airport | Amsterdam Airport Schiphol (EHAM) |
Arrival
| Time | N/A |
|---|---|
| Airport | Miami International Airport (KMIA) |
| Time | Latitude | Longitude | Altitude | Speed | Heading |
|---|---|---|---|---|---|
| 2026-04-18 09:27 | 52.31298 | 4.75810 | 3 ft | 0 kts | 267° |
| 2026-04-18 09:37 | 52.31299 | 4.75821 | 3 ft | 2 kts | 264° |
| 2026-04-18 09:38 | 52.31300 | 4.75848 | 4 ft | 2 kts | 265° |
| 2026-04-18 09:38 | 52.31301 | 4.75875 | 5 ft | 2 kts | 267° |
| 2026-04-18 09:38 | 52.31300 | 4.75902 | 5 ft | 2 kts | 311° |
| 2026-04-18 09:38 | 52.31288 | 4.75920 | 6 ft | 2 kts | 323° |
| 2026-04-18 09:39 | 52.31274 | 4.75932 | 3 ft | 2 kts | 345° |
| 2026-04-18 09:39 | 52.31258 | 4.75937 | 4 ft | 2 kts | 354° |
| 2026-04-18 09:39 | 52.31244 | 4.75939 | 4 ft | 1 kts | 358° |
| 2026-04-18 09:39 | 52.31242 | 4.75939 | 4 ft | 0 kts | 358° |
| 2026-04-18 09:40 | 52.31244 | 4.75939 | 4 ft | 0 kts | 358° |
| 2026-04-18 09:42 | 52.31245 | 4.75939 | 4 ft | 0 kts | 358° |
| 2026-04-18 09:42 | 52.31267 | 4.75937 | 3 ft | 6 kts | 356° |
| 2026-04-18 09:43 | 52.31327 | 4.75931 | 4 ft | 11 kts | 356° |
| 2026-04-18 09:43 | 52.31406 | 4.75924 | 3 ft | 9 kts | 356° |
| 2026-04-18 09:43 | 52.31444 | 4.75977 | 3 ft | 9 kts | 70° |
| 2026-04-18 09:43 | 52.31451 | 4.76095 | 3 ft | 13 kts | 89° |
| 2026-04-18 09:44 | 52.31456 | 4.76262 | 3 ft | 16 kts | 86° |
| 2026-04-18 09:44 | 52.31463 | 4.76449 | 3 ft | 16 kts | 86° |
| 2026-04-18 09:44 | 52.31469 | 4.76633 | 3 ft | 16 kts | 87° |
| 2026-04-18 09:44 | 52.31475 | 4.76814 | 3 ft | 16 kts | 87° |
| 2026-04-18 09:45 | 52.31481 | 4.76995 | 3 ft | 16 kts | 87° |
| 2026-04-18 09:45 | 52.31470 | 4.77147 | 3 ft | 12 kts | 115° |
| 2026-04-18 09:45 | 52.31426 | 4.77260 | 3 ft | 12 kts | 132° |
| 2026-04-18 09:45 | 52.31371 | 4.77360 | 3 ft | 12 kts | 130° |
| 2026-04-18 09:46 | 52.31313 | 4.77463 | 3 ft | 13 kts | 139° |
| 2026-04-18 09:46 | 52.31223 | 4.77507 | 3 ft | 11 kts | 190° |
| 2026-04-18 09:46 | 52.31140 | 4.77496 | 3 ft | 14 kts | 182° |
| 2026-04-18 09:46 | 52.31030 | 4.77486 | 3 ft | 18 kts | 183° |
| 2026-04-18 09:47 | 52.30894 | 4.77474 | 3 ft | 21 kts | 183° |
| 2026-04-18 09:47 | 52.30749 | 4.77460 | 3 ft | 20 kts | 183° |
| 2026-04-18 09:47 | 52.30631 | 4.77494 | 3 ft | 17 kts | 155° |
| 2026-04-18 09:47 | 52.30524 | 4.77583 | 2 ft | 17 kts | 153° |
| 2026-04-18 09:48 | 52.30437 | 4.77639 | 3 ft | 10 kts | 184° |
| 2026-04-18 09:48 | 52.30385 | 4.77562 | 2 ft | 12 kts | 238° |
| 2026-04-18 09:48 | 52.30237 | 4.77174 | 0 ft | 74 kts | 238° |
| 2026-04-18 09:48 | 52.29850 | 4.76167 | 0 ft | 134 kts | 238° |
| 2026-04-18 09:49 | 52.29282 | 4.74682 | 257 ft | 164 kts | 238° |
| 2026-04-18 09:49 | 52.28657 | 4.73015 | 818 ft | 179 kts | 239° |
| 2026-04-18 09:49 | 52.28006 | 4.71292 | 1357 ft | 179 kts | 238° |
| 2026-04-18 09:49 | 52.27254 | 4.69629 | 1714 ft | 186 kts | 226° |
| 2026-04-18 09:50 | 52.26283 | 4.68214 | 2186 ft | 187 kts | 220° |
| 2026-04-18 09:50 | 52.25631 | 4.67293 | 2503 ft | 187 kts | 222° |
| 2026-04-18 09:50 | 52.24639 | 4.65880 | 2939 ft | 192 kts | 222° |
| 2026-04-18 09:50 | 52.23725 | 4.63393 | 3441 ft | 201 kts | 255° |
| 2026-04-18 09:51 | 52.23472 | 4.61881 | 3681 ft | 209 kts | 255° |
| 2026-04-18 09:51 | 52.22935 | 4.58689 | 4102 ft | 230 kts | 256° |
| 2026-04-18 09:51 | 52.22917 | 4.56175 | 4892 ft | 218 kts | 287° |
| 2026-04-18 09:51 | 52.23417 | 4.54715 | 5283 ft | 222 kts | 314° |
| 2026-04-18 09:52 | 52.24695 | 4.53217 | 5836 ft | 239 kts | 330° |
| 2026-04-18 09:52 | 52.26195 | 4.51866 | 6517 ft | 251 kts | 332° |
| 2026-04-18 09:52 | 52.27755 | 4.50540 | 7302 ft | 254 kts | 332° |
| 2026-04-18 09:52 | 52.29346 | 4.49207 | 7886 ft | 259 kts | 333° |
| 2026-04-18 09:53 | 52.30992 | 4.47842 | 8373 ft | 270 kts | 333° |
| 2026-04-18 09:53 | 52.32697 | 4.46429 | 8873 ft | 279 kts | 333° |
| 2026-04-18 09:53 | 52.34436 | 4.44981 | 9563 ft | 279 kts | 329° |
| 2026-04-18 09:53 | 52.36098 | 4.43389 | 10345 ft | 275 kts | 332° |
| 2026-04-18 09:54 | 52.37884 | 4.42350 | 11149 ft | 271 kts | 346° |
| 2026-04-18 09:54 | 52.39731 | 4.41756 | 11822 ft | 270 kts | 351° |
| 2026-04-18 09:54 | 52.41578 | 4.41328 | 12406 ft | 272 kts | 352° |
| 2026-04-18 09:54 | 52.43469 | 4.40961 | 12856 ft | 274 kts | 353° |
| 2026-04-18 09:55 | 52.45370 | 4.40626 | 13007 ft | 275 kts | 353° |
| 2026-04-18 09:55 | 52.47283 | 4.40307 | 13274 ft | 277 kts | 354° |
| 2026-04-18 09:55 | 52.49214 | 4.39992 | 13796 ft | 280 kts | 354° |
| 2026-04-18 09:55 | 52.51158 | 4.39679 | 14374 ft | 281 kts | 354° |
| 2026-04-18 09:56 | 52.53112 | 4.39367 | 14909 ft | 283 kts | 354° |
| 2026-04-18 09:56 | 52.55080 | 4.39053 | 15430 ft | 285 kts | 354° |
| 2026-04-18 09:56 | 52.57077 | 4.38735 | 15849 ft | 292 kts | 354° |
| 2026-04-18 09:56 | 52.59149 | 4.38405 | 16068 ft | 306 kts | 354° |
| 2026-04-18 09:57 | 52.61320 | 4.38059 | 16281 ft | 319 kts | 354° |
| 2026-04-18 09:57 | 52.63579 | 4.37699 | 16491 ft | 333 kts | 354° |
| 2026-04-18 09:57 | 52.65935 | 4.37323 | 16699 ft | 345 kts | 354° |
| 2026-04-18 09:57 | 52.68318 | 4.36810 | 16974 ft | 354 kts | 348° |
| 2026-04-18 09:58 | 52.70695 | 4.35656 | 17372 ft | 359 kts | 337° |
| 2026-04-18 09:58 | 52.72926 | 4.33679 | 17583 ft | 370 kts | 324° |
| 2026-04-18 09:58 | 52.74881 | 4.30849 | 17781 ft | 380 kts | 311° |
| 2026-04-18 09:58 | 52.76425 | 4.27270 | 18090 ft | 385 kts | 298° |
| 2026-04-18 09:59 | 52.77553 | 4.23219 | 18349 ft | 393 kts | 291° |
| 2026-04-18 09:59 | 52.78516 | 4.18923 | 18523 ft | 403 kts | 289° |
| 2026-04-18 09:59 | 52.79397 | 4.14477 | 18695 ft | 412 kts | 287° |
| 2026-04-18 10:00 | 52.81119 | 4.05333 | 19389 ft | 419 kts | 287° |
| 2026-04-18 10:00 | 52.81997 | 4.00728 | 19774 ft | 422 kts | 287° |
| 2026-04-18 10:00 | 52.82895 | 3.96097 | 20143 ft | 424 kts | 288° |
| 2026-04-18 10:00 | 52.83809 | 3.91442 | 20508 ft | 427 kts | 288° |
| 2026-04-18 10:01 | 52.84726 | 3.86807 | 20861 ft | 429 kts | 288° |
| 2026-04-18 10:01 | 52.85657 | 3.82105 | 21210 ft | 431 kts | 288° |
| 2026-04-18 10:01 | 52.86593 | 3.77381 | 21546 ft | 433 kts | 288° |
| 2026-04-18 10:01 | 52.87532 | 3.72625 | 21888 ft | 436 kts | 288° |
| 2026-04-18 10:02 | 52.88473 | 3.67846 | 22214 ft | 438 kts | 288° |
| 2026-04-18 10:02 | 52.89427 | 3.62983 | 22536 ft | 440 kts | 288° |
| 2026-04-18 10:02 | 52.90361 | 3.58207 | 22857 ft | 442 kts | 288° |
| 2026-04-18 10:02 | 52.91306 | 3.53364 | 23157 ft | 444 kts | 288° |
| 2026-04-18 10:03 | 52.92257 | 3.48470 | 23475 ft | 446 kts | 288° |
| 2026-04-18 10:03 | 52.93209 | 3.43563 | 23770 ft | 448 kts | 288° |
| 2026-04-18 10:03 | 52.94163 | 3.38635 | 24061 ft | 450 kts | 288° |
| 2026-04-18 10:03 | 52.95118 | 3.33687 | 24350 ft | 452 kts | 288° |
| 2026-04-18 10:04 | 52.96077 | 3.28705 | 24630 ft | 454 kts | 288° |
| 2026-04-18 10:04 | 52.97038 | 3.23701 | 24908 ft | 456 kts | 287° |
| 2026-04-18 10:04 | 52.98002 | 3.18671 | 25182 ft | 458 kts | 287° |
| 2026-04-18 10:04 | 52.98968 | 3.13613 | 25451 ft | 460 kts | 287° |
| 2026-04-18 10:05 | 52.99932 | 3.08548 | 25712 ft | 461 kts | 287° |
| 2026-04-18 10:05 | 53.00889 | 3.03513 | 25962 ft | 463 kts | 287° |
| 2026-04-18 10:05 | 53.01857 | 2.98401 | 26220 ft | 465 kts | 287° |
| 2026-04-18 10:05 | 53.02829 | 2.93254 | 26465 ft | 467 kts | 287° |
| 2026-04-18 10:06 | 53.03801 | 2.88099 | 26708 ft | 468 kts | 287° |
| 2026-04-18 10:06 | 53.04776 | 2.82908 | 26936 ft | 470 kts | 287° |
| 2026-04-18 10:06 | 53.05750 | 2.77710 | 27177 ft | 472 kts | 287° |
| 2026-04-18 10:06 | 53.06725 | 2.72491 | 27406 ft | 473 kts | 287° |
| 2026-04-18 10:07 | 53.07701 | 2.67254 | 27629 ft | 475 kts | 287° |
| 2026-04-18 10:07 | 53.08680 | 2.61985 | 27845 ft | 477 kts | 287° |
| 2026-04-18 10:07 | 53.09660 | 2.56699 | 28065 ft | 478 kts | 287° |
| 2026-04-18 10:07 | 53.10577 | 2.51380 | 28285 ft | 480 kts | 282° |
| 2026-04-18 10:08 | 53.11190 | 2.45903 | 28480 ft | 481 kts | 279° |
| 2026-04-18 10:08 | 53.11714 | 2.40393 | 28683 ft | 483 kts | 278° |
| 2026-04-18 10:08 | 53.12185 | 2.34917 | 28881 ft | 484 kts | 278° |
| 2026-04-18 10:08 | 53.12636 | 2.29362 | 29080 ft | 486 kts | 277° |
| 2026-04-18 10:09 | 53.13077 | 2.23776 | 29264 ft | 487 kts | 277° |
| 2026-04-18 10:09 | 53.13518 | 2.18162 | 29448 ft | 488 kts | 277° |
| 2026-04-18 10:09 | 53.13959 | 2.12548 | 29635 ft | 490 kts | 277° |
| 2026-04-18 10:09 | 53.14402 | 2.06914 | 29809 ft | 491 kts | 277° |
| 2026-04-18 10:10 | 53.14847 | 2.01269 | 29986 ft | 492 kts | 277° |
| 2026-04-18 10:10 | 53.15293 | 1.95606 | 30155 ft | 494 kts | 277° |
| 2026-04-18 10:10 | 53.15738 | 1.89920 | 30326 ft | 495 kts | 277° |
| 2026-04-18 10:10 | 53.16180 | 1.84236 | 30554 ft | 495 kts | 277° |
| 2026-04-18 10:11 | 53.16620 | 1.78552 | 30826 ft | 494 kts | 277° |
| 2026-04-18 10:11 | 53.17056 | 1.72879 | 31085 ft | 493 kts | 277° |
| 2026-04-18 10:11 | 53.17489 | 1.67208 | 31319 ft | 492 kts | 277° |
| 2026-04-18 10:11 | 53.17919 | 1.61546 | 31549 ft | 492 kts | 277° |
| 2026-04-18 10:12 | 53.18345 | 1.55887 | 31785 ft | 491 kts | 277° |
| 2026-04-18 10:12 | 53.18767 | 1.50240 | 32013 ft | 491 kts | 277° |
| 2026-04-18 10:12 | 53.19188 | 1.44589 | 32232 ft | 491 kts | 277° |
| 2026-04-18 10:12 | 53.19599 | 1.39022 | 32438 ft | 490 kts | 277° |
| 2026-04-18 10:13 | 53.20013 | 1.33379 | 32645 ft | 490 kts | 277° |
| 2026-04-18 10:13 | 53.20424 | 1.27740 | 32854 ft | 489 kts | 277° |
| 2026-04-18 10:13 | 53.20831 | 1.22114 | 33048 ft | 489 kts | 277° |
| 2026-04-18 10:13 | 53.21237 | 1.16471 | 33248 ft | 488 kts | 277° |
| 2026-04-18 10:14 | 53.21639 | 1.10847 | 33444 ft | 488 kts | 277° |
| 2026-04-18 10:14 | 53.22038 | 1.05227 | 33637 ft | 488 kts | 277° |
| 2026-04-18 10:14 | 53.22434 | 0.99601 | 33821 ft | 487 kts | 276° |
| 2026-04-18 10:14 | 53.22828 | 0.93975 | 34003 ft | 487 kts | 276° |
| 2026-04-18 10:15 | 53.23218 | 0.88365 | 34180 ft | 487 kts | 276° |
| 2026-04-18 10:15 | 53.23605 | 0.82752 | 34351 ft | 486 kts | 276° |
| 2026-04-18 10:15 | 53.23987 | 0.77181 | 34756 ft | 480 kts | 276° |
| 2026-04-18 10:15 | 53.24360 | 0.71698 | 35285 ft | 471 kts | 276° |
| 2026-04-18 10:16 | 53.24726 | 0.66286 | 35597 ft | 467 kts | 276° |
| 2026-04-18 10:16 | 53.25087 | 0.60905 | 35782 ft | 466 kts | 276° |
| 2026-04-18 10:16 | 53.25440 | 0.55601 | 35921 ft | 466 kts | 276° |
| 2026-04-18 10:16 | 53.25797 | 0.50220 | 36062 ft | 466 kts | 276° |
| 2026-04-18 10:17 | 53.26150 | 0.44841 | 36182 ft | 465 kts | 276° |
| 2026-04-18 10:17 | 53.26502 | 0.39463 | 36328 ft | 465 kts | 276° |
| 2026-04-18 10:17 | 53.26850 | 0.34093 | 36432 ft | 465 kts | 276° |
| 2026-04-18 10:17 | 53.27196 | 0.28709 | 36546 ft | 465 kts | 276° |
| 2026-04-18 10:18 | 53.27541 | 0.23324 | 36661 ft | 465 kts | 276° |
| 2026-04-18 10:18 | 53.27882 | 0.17937 | 36778 ft | 466 kts | 276° |
| 2026-04-18 10:18 | 53.28222 | 0.12555 | 36883 ft | 466 kts | 276° |
| 2026-04-18 10:18 | 53.28555 | 0.07226 | 36986 ft | 466 kts | 276° |
| 2026-04-18 10:19 | 53.28920 | 0.01855 | 37082 ft | 466 kts | 278° |
| 2026-04-18 10:19 | 53.29954 | -0.08843 | 37267 ft | 466 kts | 280° |
| 2026-04-18 10:19 | 53.30534 | -0.14183 | 37379 ft | 466 kts | 280° |
| 2026-04-18 10:20 | 53.31116 | -0.19509 | 37475 ft | 466 kts | 280° |
| 2026-04-18 10:20 | 53.32254 | -0.30195 | 37660 ft | 466 kts | 279° |
| 2026-04-18 10:21 | 53.33352 | -0.40894 | 37842 ft | 466 kts | 279° |
| 2026-04-18 10:21 | 53.34420 | -0.51524 | 37998 ft | 466 kts | 279° |
| 2026-04-18 10:22 | 53.35487 | -0.62263 | 38000 ft | 467 kts | 279° |
| 2026-04-18 10:22 | 53.36543 | -0.72963 | 38000 ft | 466 kts | 279° |
| 2026-04-18 10:23 | 53.37592 | -0.83677 | 38000 ft | 466 kts | 279° |
| 2026-04-18 10:23 | 53.38631 | -0.94398 | 38000 ft | 466 kts | 279° |
| 2026-04-18 10:24 | 53.39661 | -1.05128 | 38000 ft | 466 kts | 279° |
| 2026-04-18 10:24 | 53.40675 | -1.15808 | 38000 ft | 466 kts | 279° |
| 2026-04-18 10:25 | 53.41685 | -1.26548 | 38000 ft | 466 kts | 279° |
| 2026-04-18 10:25 | 53.42686 | -1.37314 | 38000 ft | 467 kts | 278° |
| 2026-04-18 10:26 | 53.43676 | -1.48076 | 38000 ft | 466 kts | 278° |
| 2026-04-18 10:26 | 53.44653 | -1.58782 | 38000 ft | 467 kts | 278° |
| 2026-04-18 10:27 | 53.45627 | -1.69578 | 38000 ft | 468 kts | 278° |
| 2026-04-18 10:27 | 53.46594 | -1.80405 | 37999 ft | 469 kts | 278° |
| 2026-04-18 10:28 | 53.47553 | -1.91257 | 38001 ft | 470 kts | 278° |
| 2026-04-18 10:28 | 53.48493 | -2.02025 | 37999 ft | 468 kts | 278° |
| 2026-04-18 10:29 | 53.49428 | -2.12835 | 38000 ft | 467 kts | 278° |
| 2026-04-18 10:29 | 53.50352 | -2.23646 | 38000 ft | 466 kts | 278° |
| 2026-04-18 10:30 | 53.51265 | -2.34448 | 38000 ft | 466 kts | 278° |
| 2026-04-18 10:30 | 53.52162 | -2.45175 | 38000 ft | 466 kts | 278° |
| 2026-04-18 10:31 | 53.53055 | -2.55973 | 38000 ft | 466 kts | 278° |
| 2026-04-18 10:31 | 53.53938 | -2.66772 | 38000 ft | 466 kts | 278° |
| 2026-04-18 10:32 | 53.54811 | -2.77577 | 38000 ft | 466 kts | 277° |
| 2026-04-18 10:32 | 53.55672 | -2.88344 | 38000 ft | 466 kts | 277° |
| 2026-04-18 10:33 | 53.56526 | -2.99163 | 38000 ft | 466 kts | 277° |
| 2026-04-18 10:33 | 53.57370 | -3.09983 | 38000 ft | 466 kts | 277° |
| 2026-04-18 10:34 | 53.58204 | -3.20802 | 38000 ft | 466 kts | 277° |
| 2026-04-18 10:34 | 53.59027 | -3.31609 | 38000 ft | 466 kts | 277° |
| 2026-04-18 10:35 | 53.59842 | -3.42434 | 38000 ft | 466 kts | 277° |
| 2026-04-18 10:35 | 53.60641 | -3.53199 | 38000 ft | 466 kts | 277° |
| 2026-04-18 10:36 | 53.61437 | -3.64037 | 38000 ft | 466 kts | 277° |
| 2026-04-18 10:36 | 53.62044 | -3.74907 | 38000 ft | 466 kts | 274° |
| 2026-04-18 10:37 | 53.62466 | -3.85809 | 38000 ft | 466 kts | 273° |
| 2026-04-18 10:37 | 53.62869 | -3.96704 | 38000 ft | 466 kts | 274° |
| 2026-04-18 10:38 | 53.63214 | -4.05758 | 38000 ft | 466 kts | 274° |
| 2026-04-18 10:38 | 53.63703 | -4.18432 | 38000 ft | 466 kts | 274° |
| 2026-04-18 10:39 | 53.64115 | -4.29322 | 38000 ft | 466 kts | 274° |
| 2026-04-18 10:39 | 53.64454 | -4.38454 | 38000 ft | 466 kts | 273° |
| 2026-04-18 10:40 | 53.64846 | -4.49295 | 38000 ft | 466 kts | 273° |
| 2026-04-18 10:40 | 53.65228 | -4.60193 | 38000 ft | 466 kts | 273° |
| 2026-04-18 10:41 | 53.65601 | -4.71100 | 38000 ft | 466 kts | 273° |
| 2026-04-18 10:41 | 53.65964 | -4.82007 | 38000 ft | 466 kts | 273° |
| 2026-04-18 10:42 | 53.66320 | -4.92921 | 38000 ft | 466 kts | 273° |
| 2026-04-18 10:42 | 53.66669 | -5.03839 | 38000 ft | 466 kts | 273° |
| 2026-04-18 10:43 | 53.67009 | -5.14762 | 38000 ft | 466 kts | 273° |
| 2026-04-18 10:43 | 53.67331 | -5.25677 | 38000 ft | 466 kts | 272° |
| 2026-04-18 10:44 | 53.67640 | -5.36590 | 38000 ft | 466 kts | 272° |
| 2026-04-18 10:44 | 53.67938 | -5.47439 | 38000 ft | 466 kts | 272° |
| 2026-04-18 10:45 | 53.68193 | -5.58365 | 38000 ft | 466 kts | 272° |
| 2026-04-18 10:45 | 53.68401 | -5.69319 | 38000 ft | 466 kts | 271° |
| 2026-04-18 10:46 | 53.68597 | -5.80241 | 38000 ft | 466 kts | 271° |
| 2026-04-18 10:46 | 53.68788 | -5.91169 | 38000 ft | 466 kts | 271° |
| 2026-04-18 10:47 | 53.68971 | -6.02097 | 38000 ft | 466 kts | 271° |
| 2026-04-18 10:47 | 53.69145 | -6.13020 | 38000 ft | 466 kts | 271° |
| 2026-04-18 10:48 | 53.69308 | -6.23878 | 38000 ft | 466 kts | 271° |
| 2026-04-18 10:48 | 53.69462 | -6.34813 | 38000 ft | 466 kts | 271° |
| 2026-04-18 10:49 | 53.69606 | -6.45756 | 38000 ft | 466 kts | 271° |
| 2026-04-18 10:49 | 53.69741 | -6.56701 | 38000 ft | 466 kts | 271° |
| 2026-04-18 10:50 | 53.69865 | -6.67641 | 38000 ft | 466 kts | 271° |
| 2026-04-18 10:50 | 53.69979 | -6.78586 | 38000 ft | 466 kts | 271° |
| 2026-04-18 10:51 | 53.70083 | -6.89530 | 38000 ft | 466 kts | 271° |
| 2026-04-18 10:51 | 53.70177 | -7.00412 | 38000 ft | 466 kts | 271° |
| 2026-04-18 10:52 | 53.70261 | -7.11358 | 38000 ft | 467 kts | 270° |
| 2026-04-18 10:52 | 53.70335 | -7.22313 | 38000 ft | 467 kts | 270° |
| 2026-04-18 10:53 | 53.70400 | -7.33268 | 38000 ft | 467 kts | 270° |
| 2026-04-18 10:53 | 53.70454 | -7.44223 | 38000 ft | 466 kts | 270° |
| 2026-04-18 10:54 | 53.70499 | -7.55175 | 38000 ft | 466 kts | 270° |
| 2026-04-18 10:54 | 53.70533 | -7.66121 | 38000 ft | 466 kts | 270° |
| 2026-04-18 10:55 | 53.70557 | -7.77082 | 38000 ft | 467 kts | 270° |
| 2026-04-18 10:55 | 53.70572 | -7.88039 | 38000 ft | 466 kts | 270° |
| 2026-04-18 10:56 | 53.70576 | -7.98982 | 38000 ft | 466 kts | 270° |
| 2026-04-18 10:56 | 53.70571 | -8.09927 | 38000 ft | 466 kts | 270° |
| 2026-04-18 10:57 | 53.70555 | -8.20872 | 38000 ft | 466 kts | 270° |
| 2026-04-18 10:57 | 53.70530 | -8.31829 | 38000 ft | 466 kts | 270° |
| 2026-04-18 10:58 | 53.70494 | -8.42715 | 38000 ft | 467 kts | 269° |
| 2026-04-18 10:58 | 53.70449 | -8.53667 | 38000 ft | 466 kts | 269° |
| 2026-04-18 10:59 | 53.70393 | -8.64619 | 38000 ft | 466 kts | 269° |
| 2026-04-18 10:59 | 53.70328 | -8.75572 | 38000 ft | 467 kts | 269° |
| 2026-04-18 11:00 | 53.70253 | -8.86521 | 38000 ft | 466 kts | 269° |
| 2026-04-18 11:00 | 53.70167 | -8.97465 | 38000 ft | 466 kts | 269° |
| 2026-04-18 11:01 | 53.70073 | -9.08350 | 38000 ft | 466 kts | 269° |
| 2026-04-18 11:01 | 53.69967 | -9.19284 | 38000 ft | 466 kts | 269° |
| 2026-04-18 11:02 | 53.69791 | -9.35690 | 38000 ft | 466 kts | 269° |
| 2026-04-18 11:02 | 53.69661 | -9.46634 | 38001 ft | 467 kts | 269° |
| 2026-04-18 11:03 | 53.69521 | -9.57581 | 38000 ft | 467 kts | 269° |
| 2026-04-18 11:03 | 53.69370 | -9.68534 | 37999 ft | 466 kts | 269° |
| 2026-04-18 11:04 | 53.69210 | -9.79491 | 38001 ft | 467 kts | 268° |
| 2026-04-18 11:04 | 53.69040 | -9.90444 | 38000 ft | 467 kts | 268° |
| 2026-04-18 11:05 | 53.68859 | -10.01407 | 37999 ft | 466 kts | 268° |
| 2026-04-18 11:05 | 53.68671 | -10.12254 | 38000 ft | 466 kts | 268° |
| 2026-04-18 11:06 | 53.68471 | -10.23190 | 38000 ft | 466 kts | 268° |
| 2026-04-18 11:06 | 53.68261 | -10.34139 | 38000 ft | 466 kts | 268° |
| 2026-04-18 11:07 | 53.68041 | -10.45068 | 38000 ft | 466 kts | 268° |
| 2026-04-18 11:07 | 53.67811 | -10.55990 | 38000 ft | 466 kts | 268° |
| 2026-04-18 11:08 | 53.67572 | -10.66899 | 38000 ft | 466 kts | 268° |
| 2026-04-18 11:08 | 53.67323 | -10.77822 | 38000 ft | 466 kts | 268° |
| 2026-04-18 11:09 | 53.67065 | -10.88679 | 38000 ft | 466 kts | 268° |
| 2026-04-18 11:09 | 53.66795 | -10.99618 | 38000 ft | 466 kts | 268° |
| 2026-04-18 11:10 | 53.66516 | -11.10529 | 38000 ft | 466 kts | 267° |
| 2026-04-18 11:10 | 53.66227 | -11.21454 | 38000 ft | 466 kts | 267° |
| 2026-04-18 11:11 | 53.65929 | -11.32309 | 38000 ft | 466 kts | 267° |
| 2026-04-18 11:11 | 53.65621 | -11.43216 | 38000 ft | 466 kts | 267° |
| 2026-04-18 11:12 | 53.65301 | -11.54141 | 38000 ft | 466 kts | 267° |
| 2026-04-18 11:12 | 53.64972 | -11.65056 | 38000 ft | 466 kts | 267° |
| 2026-04-18 11:13 | 53.64634 | -11.75963 | 38000 ft | 466 kts | 267° |
| 2026-04-18 11:13 | 53.64285 | -11.86876 | 38000 ft | 466 kts | 267° |
| 2026-04-18 11:14 | 53.63926 | -11.97778 | 38000 ft | 466 kts | 266° |
| 2026-04-18 11:14 | 53.63558 | -12.08688 | 38000 ft | 466 kts | 266° |
| 2026-04-18 11:15 | 53.63181 | -12.19529 | 38000 ft | 466 kts | 266° |
| 2026-04-18 11:15 | 53.62793 | -12.30430 | 38000 ft | 466 kts | 266° |
| 2026-04-18 11:16 | 53.62395 | -12.41329 | 38000 ft | 466 kts | 266° |
| 2026-04-18 11:16 | 53.61987 | -12.52228 | 38000 ft | 466 kts | 266° |
| 2026-04-18 11:17 | 53.61569 | -12.63126 | 38000 ft | 466 kts | 266° |
| 2026-04-18 11:17 | 53.61141 | -12.74012 | 38000 ft | 466 kts | 266° |
| 2026-04-18 11:18 | 53.60703 | -12.84918 | 38000 ft | 466 kts | 266° |
| 2026-04-18 11:18 | 53.60258 | -12.95741 | 38000 ft | 466 kts | 266° |
| 2026-04-18 11:19 | 53.59800 | -13.06627 | 38000 ft | 466 kts | 266° |
| 2026-04-18 11:19 | 53.59333 | -13.17498 | 38000 ft | 466 kts | 266° |
| 2026-04-18 11:20 | 53.58856 | -13.28384 | 38000 ft | 466 kts | 265° |
| 2026-04-18 11:20 | 53.58369 | -13.39257 | 38000 ft | 466 kts | 265° |
| 2026-04-18 11:21 | 53.57872 | -13.50137 | 38000 ft | 466 kts | 265° |
| 2026-04-18 11:21 | 53.57365 | -13.61012 | 38000 ft | 466 kts | 265° |
| 2026-04-18 11:22 | 53.56852 | -13.71816 | 38000 ft | 466 kts | 265° |
| 2026-04-18 11:22 | 53.56325 | -13.82693 | 38000 ft | 466 kts | 265° |
| 2026-04-18 11:23 | 53.55788 | -13.93574 | 38000 ft | 466 kts | 265° |
| 2026-04-18 11:23 | 53.55241 | -14.04443 | 38000 ft | 466 kts | 265° |
| 2026-04-18 11:24 | 53.54780 | -14.13461 | 38000 ft | 466 kts | 265° |
| 2026-04-18 11:24 | 53.54124 | -14.26081 | 38000 ft | 466 kts | 265° |
| 2026-04-18 11:25 | 53.53548 | -14.36931 | 38000 ft | 466 kts | 265° |
| 2026-04-18 11:25 | 53.53059 | -14.46015 | 38000 ft | 466 kts | 265° |
| 2026-04-18 11:26 | 53.52465 | -14.56868 | 38000 ft | 466 kts | 264° |
| 2026-04-18 11:26 | 53.51866 | -14.67628 | 38000 ft | 466 kts | 264° |
| 2026-04-18 11:27 | 53.51253 | -14.78472 | 38000 ft | 466 kts | 264° |
| 2026-04-18 11:27 | 53.50630 | -14.89305 | 38000 ft | 466 kts | 264° |
| 2026-04-18 11:28 | 53.50115 | -15.00158 | 38000 ft | 466 kts | 270° |
| 2026-04-18 11:28 | 53.50207 | -15.11034 | 38000 ft | 466 kts | 271° |
| 2026-04-18 11:29 | 53.50415 | -15.21905 | 38000 ft | 466 kts | 272° |
| 2026-04-18 11:29 | 53.50636 | -15.32785 | 38000 ft | 466 kts | 272° |
| 2026-04-18 11:30 | 53.50839 | -15.43688 | 38000 ft | 466 kts | 271° |
| 2026-04-18 11:30 | 53.51023 | -15.54565 | 38000 ft | 466 kts | 271° |
| 2026-04-18 11:31 | 53.51194 | -15.65381 | 38000 ft | 466 kts | 271° |
| 2026-04-18 11:31 | 53.51356 | -15.76268 | 38000 ft | 466 kts | 271° |
| 2026-04-18 11:32 | 53.51509 | -15.87158 | 38000 ft | 466 kts | 271° |
| 2026-04-18 11:32 | 53.51652 | -15.98030 | 38000 ft | 466 kts | 271° |
| 2026-04-18 11:33 | 53.51785 | -16.08942 | 38000 ft | 466 kts | 271° |
| 2026-04-18 11:33 | 53.51908 | -16.19779 | 38000 ft | 466 kts | 271° |
| 2026-04-18 11:34 | 53.52022 | -16.30672 | 38000 ft | 466 kts | 271° |
| 2026-04-18 11:34 | 53.52125 | -16.41567 | 38000 ft | 466 kts | 271° |
| 2026-04-18 11:35 | 53.52219 | -16.52461 | 38000 ft | 466 kts | 271° |
| 2026-04-18 11:35 | 53.52302 | -16.63291 | 38000 ft | 466 kts | 270° |
| 2026-04-18 11:36 | 53.52376 | -16.74191 | 38000 ft | 466 kts | 270° |
| 2026-04-18 11:36 | 53.52440 | -16.85073 | 38000 ft | 466 kts | 270° |
| 2026-04-18 11:37 | 53.52494 | -16.95990 | 38000 ft | 466 kts | 270° |
| 2026-04-18 11:37 | 53.52538 | -17.06802 | 38000 ft | 466 kts | 270° |
| 2026-04-18 11:38 | 53.52572 | -17.17701 | 38000 ft | 466 kts | 270° |
| 2026-04-18 11:38 | 53.52596 | -17.28592 | 38000 ft | 466 kts | 270° |
| 2026-04-18 11:39 | 53.52611 | -17.39487 | 38000 ft | 466 kts | 270° |
| 2026-04-18 11:39 | 53.52615 | -17.50394 | 38000 ft | 466 kts | 270° |
| 2026-04-18 11:40 | 53.52610 | -17.61287 | 38000 ft | 466 kts | 270° |
| 2026-04-18 11:40 | 53.52595 | -17.72109 | 38000 ft | 466 kts | 270° |
| 2026-04-18 11:41 | 53.52570 | -17.83011 | 38000 ft | 466 kts | 270° |
| 2026-04-18 11:41 | 53.52535 | -17.93921 | 38000 ft | 466 kts | 269° |
| 2026-04-18 11:42 | 53.52490 | -18.04815 | 38000 ft | 466 kts | 269° |
| 2026-04-18 11:42 | 53.52436 | -18.15642 | 38000 ft | 466 kts | 269° |
| 2026-04-18 11:43 | 53.52371 | -18.26531 | 38000 ft | 466 kts | 269° |
| 2026-04-18 11:43 | 53.52296 | -18.37433 | 38000 ft | 466 kts | 269° |
| 2026-04-18 11:44 | 53.52212 | -18.48330 | 38000 ft | 466 kts | 269° |
| 2026-04-18 11:44 | 53.52118 | -18.59162 | 38000 ft | 466 kts | 269° |
| 2026-04-18 11:45 | 53.52014 | -18.70067 | 38000 ft | 466 kts | 269° |
| 2026-04-18 11:45 | 53.51900 | -18.80963 | 38000 ft | 466 kts | 269° |
| 2026-04-18 11:46 | 53.51775 | -18.91868 | 38000 ft | 466 kts | 269° |
| 2026-04-18 11:46 | 53.51643 | -19.02679 | 38000 ft | 466 kts | 269° |
| 2026-04-18 11:47 | 53.51499 | -19.13582 | 38000 ft | 466 kts | 269° |
| 2026-04-18 11:47 | 53.51345 | -19.24477 | 38000 ft | 466 kts | 269° |
| 2026-04-18 11:48 | 53.51181 | -19.35365 | 38000 ft | 466 kts | 268° |
| 2026-04-18 11:48 | 53.51009 | -19.46174 | 38000 ft | 466 kts | 268° |
| 2026-04-18 11:49 | 53.50826 | -19.57077 | 38000 ft | 466 kts | 268° |
| 2026-04-18 11:49 | 53.50633 | -19.67966 | 38000 ft | 466 kts | 268° |
| 2026-04-18 11:50 | 53.50429 | -19.78858 | 38000 ft | 466 kts | 268° |
| 2026-04-18 11:50 | 53.50218 | -19.89683 | 38000 ft | 466 kts | 268° |
| 2026-04-18 11:51 | 53.50316 | -20.00551 | 38000 ft | 465 kts | 278° |
| 2026-04-18 11:51 | 53.51579 | -20.11215 | 38000 ft | 466 kts | 283° |
| 2026-04-18 11:52 | 53.53087 | -20.21809 | 38000 ft | 466 kts | 284° |
| 2026-04-18 11:52 | 53.54621 | -20.32333 | 38000 ft | 466 kts | 283° |
| 2026-04-18 11:53 | 53.56140 | -20.42944 | 38000 ft | 466 kts | 283° |
| 2026-04-18 11:53 | 53.57633 | -20.53557 | 38000 ft | 466 kts | 283° |
| 2026-04-18 11:54 | 53.59111 | -20.64172 | 38000 ft | 466 kts | 283° |
| 2026-04-18 11:54 | 53.60580 | -20.74803 | 38000 ft | 466 kts | 283° |
| 2026-04-18 11:55 | 53.62031 | -20.85373 | 38000 ft | 466 kts | 283° |
| 2026-04-18 11:55 | 53.63486 | -20.96041 | 38000 ft | 466 kts | 283° |
| 2026-04-18 11:56 | 53.64929 | -21.06696 | 38000 ft | 466 kts | 283° |
| 2026-04-18 11:56 | 53.66363 | -21.17364 | 38000 ft | 466 kts | 283° |
| 2026-04-18 11:57 | 53.67778 | -21.27968 | 38000 ft | 466 kts | 282° |
| 2026-04-18 11:57 | 53.69191 | -21.38639 | 38000 ft | 466 kts | 282° |
| 2026-04-18 11:58 | 53.70595 | -21.49320 | 38000 ft | 466 kts | 282° |
| 2026-04-18 11:58 | 53.71992 | -21.60023 | 38000 ft | 466 kts | 282° |
| 2026-04-18 11:59 | 53.73369 | -21.70655 | 38000 ft | 466 kts | 282° |
| 2026-04-18 11:59 | 53.74745 | -21.81359 | 38000 ft | 466 kts | 282° |
| 2026-04-18 12:00 | 53.76110 | -21.92054 | 38000 ft | 466 kts | 282° |
| 2026-04-18 12:00 | 53.77467 | -22.02776 | 38000 ft | 466 kts | 282° |
| 2026-04-18 12:01 | 53.79484 | -22.18864 | 38000 ft | 466 kts | 282° |
| 2026-04-18 12:02 | 53.80810 | -22.29537 | 38000 ft | 466 kts | 282° |
| 2026-04-18 12:02 | 53.82133 | -22.40276 | 38000 ft | 466 kts | 282° |
| 2026-04-18 12:03 | 53.83446 | -22.51016 | 38000 ft | 466 kts | 281° |
| 2026-04-18 12:03 | 53.84750 | -22.61770 | 38000 ft | 466 kts | 281° |
| 2026-04-18 12:04 | 53.86044 | -22.72528 | 38000 ft | 466 kts | 281° |
| 2026-04-18 12:04 | 53.87329 | -22.83293 | 38000 ft | 466 kts | 281° |
| 2026-04-18 12:05 | 53.88604 | -22.94070 | 38000 ft | 466 kts | 281° |
| 2026-04-18 12:05 | 53.89870 | -23.04850 | 38000 ft | 466 kts | 281° |
| 2026-04-18 12:06 | 53.91116 | -23.15560 | 38000 ft | 466 kts | 281° |
| 2026-04-18 12:06 | 53.92362 | -23.26343 | 38000 ft | 466 kts | 281° |
| 2026-04-18 12:07 | 53.93600 | -23.37157 | 38000 ft | 466 kts | 281° |
| 2026-04-18 12:07 | 53.94826 | -23.47959 | 38000 ft | 466 kts | 281° |
| 2026-04-18 12:08 | 53.96036 | -23.58709 | 38000 ft | 466 kts | 281° |
| 2026-04-18 12:08 | 53.97244 | -23.69523 | 38000 ft | 466 kts | 281° |
| 2026-04-18 12:09 | 53.98442 | -23.80356 | 38000 ft | 466 kts | 280° |
| 2026-04-18 12:09 | 53.99629 | -23.91177 | 38000 ft | 466 kts | 280° |
| 2026-04-18 12:10 | 54.00808 | -24.02015 | 38000 ft | 466 kts | 280° |
| 2026-04-18 12:10 | 54.01977 | -24.12864 | 38000 ft | 466 kts | 280° |
| 2026-04-18 12:11 | 54.03128 | -24.23642 | 38000 ft | 466 kts | 280° |
| 2026-04-18 12:11 | 54.04276 | -24.34489 | 38000 ft | 466 kts | 280° |
| 2026-04-18 12:12 | 54.05416 | -24.45355 | 38000 ft | 466 kts | 280° |
| 2026-04-18 12:12 | 54.06545 | -24.56219 | 38000 ft | 466 kts | 280° |
| 2026-04-18 12:13 | 54.07666 | -24.67098 | 38000 ft | 466 kts | 280° |
| 2026-04-18 12:13 | 54.08776 | -24.77980 | 38000 ft | 466 kts | 279° |
| 2026-04-18 12:14 | 54.09868 | -24.88787 | 38000 ft | 466 kts | 279° |
| 2026-04-18 12:14 | 54.10959 | -24.99684 | 38000 ft | 466 kts | 279° |
| 2026-04-18 12:15 | 54.12039 | -25.10571 | 38000 ft | 466 kts | 279° |
| 2026-04-18 12:15 | 54.12937 | -25.19706 | 38000 ft | 466 kts | 279° |
| 2026-04-18 12:16 | 54.13993 | -25.30546 | 38000 ft | 466 kts | 279° |
| 2026-04-18 12:16 | 54.15047 | -25.41472 | 38000 ft | 466 kts | 279° |
| 2026-04-18 12:17 | 54.16089 | -25.52382 | 38000 ft | 466 kts | 279° |
| 2026-04-18 12:17 | 54.17122 | -25.63311 | 38000 ft | 466 kts | 279° |
| 2026-04-18 12:18 | 54.18138 | -25.74168 | 38000 ft | 466 kts | 279° |
| 2026-04-18 12:18 | 54.19151 | -25.85102 | 38000 ft | 466 kts | 279° |
| 2026-04-18 12:19 | 54.20153 | -25.96023 | 38000 ft | 466 kts | 279° |
| 2026-04-18 12:19 | 54.21148 | -26.06981 | 38000 ft | 466 kts | 278° |
| 2026-04-18 12:20 | 54.22130 | -26.17918 | 38000 ft | 466 kts | 278° |
| 2026-04-18 12:20 | 54.23103 | -26.28869 | 38000 ft | 466 kts | 278° |
| 2026-04-18 12:21 | 54.24068 | -26.39846 | 38000 ft | 466 kts | 278° |
| 2026-04-18 12:21 | 54.25015 | -26.50740 | 38000 ft | 466 kts | 278° |
| 2026-04-18 12:22 | 54.25959 | -26.61707 | 38000 ft | 466 kts | 278° |
| 2026-04-18 12:22 | 54.26893 | -26.72690 | 38000 ft | 466 kts | 278° |
| 2026-04-18 12:23 | 54.27816 | -26.83664 | 38000 ft | 466 kts | 278° |
| 2026-04-18 12:23 | 54.28730 | -26.94651 | 38000 ft | 466 kts | 278° |
| 2026-04-18 12:24 | 54.29628 | -27.05564 | 38000 ft | 466 kts | 278° |
| 2026-04-18 12:24 | 54.30521 | -27.16555 | 38000 ft | 466 kts | 278° |
| 2026-04-18 12:25 | 54.31406 | -27.27556 | 38000 ft | 466 kts | 278° |
| 2026-04-18 12:25 | 54.32280 | -27.38564 | 38000 ft | 466 kts | 277° |
| 2026-04-18 12:26 | 54.33138 | -27.49502 | 38000 ft | 466 kts | 277° |
| 2026-04-18 12:26 | 54.33993 | -27.60527 | 38000 ft | 466 kts | 277° |
| 2026-04-18 12:27 | 54.34837 | -27.71544 | 38000 ft | 466 kts | 277° |
| 2026-04-18 12:27 | 54.35670 | -27.82556 | 38000 ft | 466 kts | 277° |
| 2026-04-18 12:28 | 54.36493 | -27.93575 | 38000 ft | 466 kts | 277° |
| 2026-04-18 12:28 | 54.37306 | -28.04605 | 38000 ft | 466 kts | 277° |
| 2026-04-18 12:29 | 54.38110 | -28.15646 | 38000 ft | 466 kts | 277° |
| 2026-04-18 12:29 | 54.38899 | -28.26609 | 38000 ft | 466 kts | 277° |
| 2026-04-18 12:30 | 54.39682 | -28.37655 | 38000 ft | 466 kts | 277° |
| 2026-04-18 12:30 | 54.40456 | -28.48706 | 38000 ft | 466 kts | 277° |
| 2026-04-18 12:31 | 54.41219 | -28.59750 | 38000 ft | 466 kts | 276° |
| 2026-04-18 12:31 | 54.41972 | -28.70800 | 38000 ft | 466 kts | 276° |
| 2026-04-18 12:32 | 54.42714 | -28.81851 | 38000 ft | 466 kts | 276° |
| 2026-04-18 12:32 | 54.43448 | -28.92916 | 38000 ft | 466 kts | 276° |
| 2026-04-18 12:33 | 54.44167 | -29.03931 | 38000 ft | 466 kts | 276° |
| 2026-04-18 12:33 | 54.44881 | -29.15016 | 38000 ft | 466 kts | 276° |
| 2026-04-18 12:34 | 54.45584 | -29.26090 | 38000 ft | 466 kts | 276° |
| 2026-04-18 12:34 | 54.46277 | -29.37181 | 38000 ft | 466 kts | 276° |
| 2026-04-18 12:35 | 54.46960 | -29.48270 | 38000 ft | 466 kts | 276° |
| 2026-04-18 12:35 | 54.47627 | -29.59275 | 38000 ft | 466 kts | 276° |
| 2026-04-18 12:36 | 54.48290 | -29.70366 | 38000 ft | 466 kts | 276° |
| 2026-04-18 12:36 | 54.48942 | -29.81463 | 38000 ft | 466 kts | 276° |
| 2026-04-18 12:37 | 54.49584 | -29.92560 | 38000 ft | 466 kts | 275° |
| 2026-04-18 12:37 | 54.50185 | -30.03652 | 38000 ft | 466 kts | 274° |
| 2026-04-18 12:38 | 54.50647 | -30.14786 | 38000 ft | 466 kts | 274° |
| 2026-04-18 12:38 | 54.51066 | -30.25903 | 38000 ft | 466 kts | 274° |
| 2026-04-18 12:39 | 54.51481 | -30.36960 | 38000 ft | 466 kts | 274° |
| 2026-04-18 12:39 | 54.51899 | -30.48098 | 38000 ft | 466 kts | 274° |
| 2026-04-18 12:40 | 54.52311 | -30.59227 | 38000 ft | 466 kts | 274° |
| 2026-04-18 12:40 | 54.52712 | -30.70365 | 38000 ft | 466 kts | 273° |
| 2026-04-18 12:41 | 54.53103 | -30.81525 | 38000 ft | 466 kts | 273° |
| 2026-04-18 12:41 | 54.53481 | -30.92601 | 38000 ft | 466 kts | 273° |
| 2026-04-18 12:42 | 54.53851 | -31.03733 | 38000 ft | 466 kts | 273° |
| 2026-04-18 12:42 | 54.54210 | -31.14874 | 38000 ft | 466 kts | 273° |
| 2026-04-18 12:43 | 54.54560 | -31.26041 | 38000 ft | 466 kts | 273° |
| 2026-04-18 12:43 | 54.54897 | -31.37115 | 38000 ft | 466 kts | 273° |
| 2026-04-18 12:44 | 54.55226 | -31.48255 | 38000 ft | 466 kts | 273° |
| 2026-04-18 12:44 | 54.55545 | -31.59410 | 38000 ft | 466 kts | 272° |
| 2026-04-18 12:45 | 54.55853 | -31.70562 | 38000 ft | 466 kts | 272° |
| 2026-04-18 12:45 | 54.56152 | -31.81730 | 38000 ft | 466 kts | 272° |
| 2026-04-18 12:46 | 54.56440 | -31.92892 | 38000 ft | 466 kts | 272° |
| 2026-04-18 12:46 | 54.56717 | -32.04053 | 38000 ft | 466 kts | 272° |
| 2026-04-18 12:47 | 54.56985 | -32.15211 | 38000 ft | 466 kts | 272° |
| 2026-04-18 12:47 | 54.57242 | -32.26364 | 38000 ft | 466 kts | 272° |
| 2026-04-18 12:48 | 54.57487 | -32.37451 | 38000 ft | 466 kts | 272° |
| 2026-04-18 12:48 | 54.57724 | -32.48619 | 38000 ft | 466 kts | 272° |
| 2026-04-18 12:49 | 54.57950 | -32.59785 | 38000 ft | 466 kts | 272° |
| 2026-04-18 12:49 | 54.58166 | -32.70948 | 38000 ft | 466 kts | 272° |
| 2026-04-18 12:50 | 54.58372 | -32.82110 | 38000 ft | 466 kts | 272° |
| 2026-04-18 12:50 | 54.58567 | -32.93281 | 38000 ft | 466 kts | 271° |
| 2026-04-18 12:51 | 54.58752 | -33.04445 | 38000 ft | 466 kts | 271° |
| 2026-04-18 12:51 | 54.58927 | -33.15623 | 38000 ft | 466 kts | 271° |
| 2026-04-18 12:52 | 54.59091 | -33.26717 | 38000 ft | 466 kts | 271° |
| 2026-04-18 12:52 | 54.59245 | -33.37899 | 38000 ft | 466 kts | 271° |
| 2026-04-18 12:53 | 54.59390 | -33.49074 | 38000 ft | 466 kts | 271° |
| 2026-04-18 12:53 | 54.59524 | -33.60259 | 38000 ft | 466 kts | 271° |
| 2026-04-18 12:54 | 54.59647 | -33.71420 | 38000 ft | 466 kts | 271° |
| 2026-04-18 12:54 | 54.59760 | -33.82534 | 38000 ft | 466 kts | 271° |
| 2026-04-18 12:55 | 54.59863 | -33.93774 | 38000 ft | 466 kts | 271° |
| 2026-04-18 12:55 | 54.59955 | -34.04887 | 38000 ft | 466 kts | 271° |
| 2026-04-18 12:56 | 54.60038 | -34.16064 | 38000 ft | 466 kts | 270° |
| 2026-04-18 12:56 | 54.60110 | -34.27232 | 38000 ft | 466 kts | 270° |
| 2026-04-18 12:57 | 54.60172 | -34.38417 | 38000 ft | 466 kts | 270° |
| 2026-04-18 12:57 | 54.60224 | -34.49606 | 38000 ft | 466 kts | 270° |
| 2026-04-18 12:58 | 54.60265 | -34.60791 | 38000 ft | 466 kts | 270° |
| 2026-04-18 12:58 | 54.60296 | -34.71892 | 38000 ft | 466 kts | 270° |
| 2026-04-18 12:59 | 54.60316 | -34.83086 | 38000 ft | 466 kts | 270° |
| 2026-04-18 12:59 | 54.60327 | -34.94268 | 38000 ft | 466 kts | 270° |
| 2026-04-18 13:00 | 54.60327 | -35.05444 | 38000 ft | 466 kts | 270° |
| 2026-04-18 13:00 | 54.60317 | -35.16618 | 38000 ft | 466 kts | 270° |
| 2026-04-18 13:01 | 54.60296 | -35.27792 | 38000 ft | 466 kts | 270° |
| 2026-04-18 13:01 | 54.60266 | -35.38915 | 38000 ft | 466 kts | 270° |
| 2026-04-18 13:02 | 54.60225 | -35.50092 | 38000 ft | 466 kts | 269° |
| 2026-04-18 13:02 | 54.60173 | -35.61272 | 38000 ft | 466 kts | 269° |
| 2026-04-18 13:03 | 54.60112 | -35.72457 | 38000 ft | 466 kts | 269° |
| 2026-04-18 13:03 | 54.60014 | -35.87332 | 38000 ft | 466 kts | 269° |
| 2026-04-18 13:04 | 54.59928 | -35.98512 | 38000 ft | 466 kts | 269° |
| 2026-04-18 13:04 | 54.59832 | -36.09691 | 38000 ft | 466 kts | 269° |
| 2026-04-18 13:05 | 54.59726 | -36.20876 | 38000 ft | 466 kts | 269° |
| 2026-04-18 13:05 | 54.59609 | -36.32056 | 38000 ft | 466 kts | 269° |
| 2026-04-18 13:06 | 54.59483 | -36.43170 | 38000 ft | 466 kts | 269° |
| 2026-04-18 13:06 | 54.59346 | -36.54339 | 38000 ft | 466 kts | 269° |
| 2026-04-18 13:07 | 54.59198 | -36.65550 | 38000 ft | 466 kts | 269° |
| 2026-04-18 13:07 | 54.59040 | -36.76722 | 38000 ft | 466 kts | 268° |
| 2026-04-18 13:08 | 54.58873 | -36.87887 | 38000 ft | 466 kts | 268° |
| 2026-04-18 13:08 | 54.58695 | -36.98993 | 38000 ft | 466 kts | 268° |
| 2026-04-18 13:09 | 54.58507 | -37.10168 | 38000 ft | 466 kts | 268° |
| 2026-04-18 13:09 | 54.58308 | -37.21347 | 38000 ft | 466 kts | 268° |
| 2026-04-18 13:10 | 54.58099 | -37.32525 | 38000 ft | 466 kts | 268° |
| 2026-04-18 13:10 | 54.57881 | -37.43606 | 38000 ft | 466 kts | 268° |
| 2026-04-18 13:11 | 54.57652 | -37.54774 | 38000 ft | 466 kts | 268° |
| 2026-04-18 13:11 | 54.57411 | -37.65951 | 38000 ft | 466 kts | 268° |
| 2026-04-18 13:12 | 54.57161 | -37.77120 | 38000 ft | 466 kts | 268° |
| 2026-04-18 13:12 | 54.56901 | -37.88279 | 38000 ft | 466 kts | 268° |
| 2026-04-18 13:13 | 54.56632 | -37.99365 | 38000 ft | 466 kts | 268° |
| 2026-04-18 13:13 | 54.56351 | -38.10523 | 38000 ft | 466 kts | 267° |
| 2026-04-18 13:14 | 54.56060 | -38.21694 | 38000 ft | 466 kts | 267° |
| 2026-04-18 13:14 | 54.55759 | -38.32844 | 38000 ft | 466 kts | 267° |
| 2026-04-18 13:15 | 54.55447 | -38.43990 | 38000 ft | 466 kts | 267° |
| 2026-04-18 13:15 | 54.55127 | -38.55095 | 38000 ft | 466 kts | 267° |
| 2026-04-18 13:16 | 54.54794 | -38.66256 | 38000 ft | 466 kts | 267° |
| 2026-04-18 13:16 | 54.54452 | -38.77413 | 38000 ft | 466 kts | 267° |
| 2026-04-18 13:17 | 54.54099 | -38.88565 | 38000 ft | 466 kts | 267° |
| 2026-04-18 13:17 | 54.53736 | -38.99711 | 38000 ft | 466 kts | 266° |
| 2026-04-18 13:18 | 54.53366 | -39.10778 | 38000 ft | 466 kts | 266° |
| 2026-04-18 13:18 | 54.52982 | -39.21929 | 38000 ft | 466 kts | 266° |
| 2026-04-18 13:19 | 54.52588 | -39.33068 | 38000 ft | 466 kts | 266° |
| 2026-04-18 13:19 | 54.52184 | -39.44209 | 38000 ft | 466 kts | 266° |
| 2026-04-18 13:20 | 54.51770 | -39.55347 | 38000 ft | 466 kts | 266° |
| 2026-04-18 13:20 | 54.51346 | -39.66479 | 38000 ft | 466 kts | 266° |
| 2026-04-18 13:21 | 54.50915 | -39.77536 | 38000 ft | 466 kts | 266° |
| 2026-04-18 13:21 | 54.50470 | -39.88679 | 38000 ft | 466 kts | 266° |
| 2026-04-18 13:22 | 54.49873 | -39.99767 | 37999 ft | 466 kts | 259° |
| 2026-04-18 13:22 | 54.48434 | -40.10623 | 38000 ft | 466 kts | 256° |
| 2026-04-18 13:23 | 54.46804 | -40.21418 | 38000 ft | 466 kts | 255° |
| 2026-04-18 13:23 | 54.45133 | -40.32176 | 38000 ft | 466 kts | 255° |
| 2026-04-18 13:24 | 54.43472 | -40.42875 | 38000 ft | 466 kts | 255° |
| 2026-04-18 13:24 | 54.41800 | -40.53651 | 38000 ft | 466 kts | 255° |
| 2026-04-18 13:25 | 54.40126 | -40.64394 | 38000 ft | 466 kts | 255° |
| 2026-04-18 13:25 | 54.38441 | -40.75141 | 38000 ft | 466 kts | 255° |
| 2026-04-18 13:26 | 54.36753 | -40.85827 | 38000 ft | 466 kts | 255° |
| 2026-04-18 13:26 | 54.35048 | -40.96552 | 38000 ft | 466 kts | 255° |
| 2026-04-18 13:27 | 54.33333 | -41.07273 | 38000 ft | 466 kts | 255° |
| 2026-04-18 13:27 | 54.31608 | -41.17989 | 38000 ft | 466 kts | 255° |
| 2026-04-18 13:28 | 54.29875 | -41.28684 | 38000 ft | 466 kts | 254° |
| 2026-04-18 13:28 | 54.28133 | -41.39370 | 38000 ft | 466 kts | 254° |
| 2026-04-18 13:29 | 54.26391 | -41.49990 | 38000 ft | 466 kts | 254° |
| 2026-04-18 13:29 | 54.24630 | -41.60658 | 38000 ft | 466 kts | 254° |
| 2026-04-18 13:30 | 54.22856 | -41.71341 | 38000 ft | 466 kts | 254° |
| 2026-04-18 13:30 | 54.21075 | -41.81997 | 38000 ft | 466 kts | 254° |
| 2026-04-18 13:31 | 54.19297 | -41.92571 | 38000 ft | 466 kts | 254° |
| 2026-04-18 13:31 | 54.17497 | -42.03210 | 38000 ft | 466 kts | 254° |
| 2026-04-18 13:32 | 54.15687 | -42.13842 | 38000 ft | 466 kts | 254° |
| 2026-04-18 13:32 | 54.13871 | -42.24452 | 38000 ft | 466 kts | 253° |
| 2026-04-18 13:33 | 54.12043 | -42.35064 | 38000 ft | 466 kts | 253° |
| 2026-04-18 13:33 | 54.10219 | -42.45585 | 38000 ft | 466 kts | 253° |
| 2026-04-18 13:34 | 54.08371 | -42.56186 | 38000 ft | 466 kts | 253° |
| 2026-04-18 13:34 | 54.06517 | -42.66763 | 38000 ft | 466 kts | 253° |
| 2026-04-18 13:35 | 54.04652 | -42.77336 | 38000 ft | 466 kts | 253° |
| 2026-04-18 13:35 | 54.02789 | -42.87834 | 38000 ft | 466 kts | 253° |
| 2026-04-18 13:36 | 54.00907 | -42.98381 | 38000 ft | 466 kts | 253° |
| 2026-04-18 13:36 | 53.99014 | -43.08930 | 38000 ft | 466 kts | 253° |
| 2026-04-18 13:37 | 53.97111 | -43.19469 | 38000 ft | 466 kts | 253° |
| 2026-04-18 13:37 | 53.95200 | -43.29991 | 38000 ft | 466 kts | 253° |
| 2026-04-18 13:38 | 53.93282 | -43.40496 | 38000 ft | 466 kts | 253° |
| 2026-04-18 13:38 | 53.91364 | -43.50943 | 38000 ft | 466 kts | 252° |
| 2026-04-18 13:39 | 53.89424 | -43.61444 | 38000 ft | 466 kts | 252° |
| 2026-04-18 13:39 | 53.87475 | -43.71937 | 38000 ft | 466 kts | 252° |
| 2026-04-18 13:40 | 53.85520 | -43.82407 | 38000 ft | 466 kts | 252° |
| 2026-04-18 13:40 | 53.83553 | -43.92878 | 38000 ft | 466 kts | 252° |
| 2026-04-18 13:41 | 53.81589 | -44.03274 | 38000 ft | 466 kts | 252° |
| 2026-04-18 13:41 | 53.79604 | -44.13727 | 38000 ft | 466 kts | 252° |
| 2026-04-18 13:42 | 53.77609 | -44.24173 | 38000 ft | 466 kts | 252° |
| 2026-04-18 13:42 | 53.75620 | -44.34536 | 38000 ft | 466 kts | 252° |
| 2026-04-18 13:43 | 53.73607 | -44.44960 | 38000 ft | 466 kts | 252° |
| 2026-04-18 13:43 | 53.71588 | -44.55360 | 38000 ft | 466 kts | 252° |
| 2026-04-18 13:44 | 53.69561 | -44.65750 | 38000 ft | 466 kts | 252° |
| 2026-04-18 13:44 | 53.67524 | -44.76131 | 38000 ft | 466 kts | 252° |
| 2026-04-18 13:45 | 53.65475 | -44.86518 | 38000 ft | 466 kts | 251° |
| 2026-04-18 13:45 | 53.63433 | -44.96812 | 38000 ft | 466 kts | 251° |
| 2026-04-18 13:46 | 53.61369 | -45.07165 | 38000 ft | 466 kts | 251° |
| 2026-04-18 13:46 | 53.59295 | -45.17508 | 38000 ft | 466 kts | 251° |
| 2026-04-18 13:47 | 53.57223 | -45.27795 | 38000 ft | 466 kts | 251° |
| 2026-04-18 13:47 | 53.55128 | -45.38137 | 38000 ft | 466 kts | 251° |
| 2026-04-18 13:48 | 53.53028 | -45.48448 | 38000 ft | 466 kts | 251° |
| 2026-04-18 13:48 | 53.50920 | -45.58748 | 38000 ft | 466 kts | 251° |
| 2026-04-18 13:49 | 53.48799 | -45.69055 | 38000 ft | 466 kts | 251° |
| 2026-04-18 13:49 | 53.46674 | -45.79333 | 38000 ft | 466 kts | 251° |
| 2026-04-18 13:50 | 53.44552 | -45.89541 | 38000 ft | 466 kts | 251° |
| 2026-04-18 13:50 | 53.42407 | -45.99805 | 38000 ft | 466 kts | 251° |
| 2026-04-18 13:51 | 53.40253 | -46.10063 | 38000 ft | 466 kts | 250° |
| 2026-04-18 13:51 | 53.38087 | -46.20324 | 38000 ft | 466 kts | 250° |
| 2026-04-18 13:52 | 53.36286 | -46.28818 | 38000 ft | 466 kts | 250° |
| 2026-04-18 13:52 | 53.33751 | -46.40713 | 38000 ft | 466 kts | 250° |
| 2026-04-18 13:53 | 53.31918 | -46.49267 | 38000 ft | 466 kts | 250° |
| 2026-04-18 13:53 | 53.29738 | -46.59401 | 38000 ft | 466 kts | 250° |
| 2026-04-18 13:54 | 53.27533 | -46.69595 | 38000 ft | 466 kts | 250° |
| 2026-04-18 13:54 | 53.25316 | -46.79799 | 38000 ft | 466 kts | 250° |
| 2026-04-18 13:55 | 53.23091 | -46.89982 | 38000 ft | 466 kts | 250° |
| 2026-04-18 13:55 | 53.20862 | -47.00139 | 38000 ft | 466 kts | 250° |
| 2026-04-18 13:56 | 53.18640 | -47.10212 | 38000 ft | 466 kts | 250° |
| 2026-04-18 13:56 | 53.16392 | -47.20354 | 38000 ft | 466 kts | 250° |
| 2026-04-18 13:57 | 53.14134 | -47.30493 | 38000 ft | 466 kts | 250° |
| 2026-04-18 13:57 | 53.11870 | -47.40611 | 38000 ft | 466 kts | 250° |
| 2026-04-18 13:58 | 53.09608 | -47.50669 | 38000 ft | 466 kts | 249° |
| 2026-04-18 13:58 | 53.07328 | -47.60758 | 38000 ft | 466 kts | 249° |
| 2026-04-18 13:59 | 53.05037 | -47.70848 | 38000 ft | 466 kts | 249° |
| 2026-04-18 13:59 | 53.02736 | -47.80933 | 38000 ft | 466 kts | 249° |
| 2026-04-18 14:00 | 53.00428 | -47.90999 | 38000 ft | 466 kts | 249° |
| 2026-04-18 14:00 | 52.98126 | -48.00996 | 38000 ft | 466 kts | 249° |
| 2026-04-18 14:01 | 52.95802 | -48.11039 | 38000 ft | 466 kts | 249° |
| 2026-04-18 14:01 | 52.93468 | -48.21077 | 38000 ft | 466 kts | 249° |
| 2026-04-18 14:02 | 52.91128 | -48.31094 | 38000 ft | 466 kts | 249° |
| 2026-04-18 14:02 | 52.88779 | -48.41105 | 38000 ft | 466 kts | 249° |
| 2026-04-18 14:03 | 52.86419 | -48.51110 | 38000 ft | 466 kts | 249° |
| 2026-04-18 14:03 | 52.84067 | -48.61040 | 38000 ft | 466 kts | 249° |
| 2026-04-18 14:04 | 52.81693 | -48.71018 | 38000 ft | 466 kts | 249° |
| 2026-04-18 14:04 | 52.79310 | -48.80985 | 38000 ft | 466 kts | 248° |
| 2026-04-18 14:05 | 52.76919 | -48.90938 | 38000 ft | 466 kts | 248° |
| 2026-04-18 14:05 | 52.74519 | -49.00885 | 38000 ft | 466 kts | 248° |
| 2026-04-18 14:06 | 52.72112 | -49.10815 | 38000 ft | 466 kts | 248° |
| 2026-04-18 14:06 | 52.69710 | -49.20683 | 38000 ft | 466 kts | 248° |
| 2026-04-18 14:07 | 52.67284 | -49.30600 | 38000 ft | 466 kts | 248° |
| 2026-04-18 14:07 | 52.64850 | -49.40508 | 38000 ft | 466 kts | 248° |
| 2026-04-18 14:08 | 52.61189 | -49.55328 | 38000 ft | 466 kts | 248° |
| 2026-04-18 14:09 | 52.58737 | -49.65196 | 38000 ft | 466 kts | 248° |
| 2026-04-18 14:09 | 52.56292 | -49.74994 | 38000 ft | 466 kts | 248° |
| 2026-04-18 14:10 | 52.53818 | -49.84861 | 38000 ft | 466 kts | 248° |
| 2026-04-18 14:10 | 52.51337 | -49.94714 | 38000 ft | 466 kts | 248° |
| 2026-04-18 14:11 | 52.48874 | -50.04568 | 38000 ft | 466 kts | 248° |
| 2026-04-18 14:11 | 52.46485 | -50.14390 | 38000 ft | 466 kts | 248° |
| 2026-04-18 14:12 | 52.44084 | -50.24281 | 38000 ft | 466 kts | 248° |
| 2026-04-18 14:12 | 52.41672 | -50.34140 | 38000 ft | 466 kts | 248° |
| 2026-04-18 14:13 | 52.39262 | -50.43923 | 38000 ft | 466 kts | 248° |
| 2026-04-18 14:13 | 52.36824 | -50.53769 | 38000 ft | 466 kts | 248° |
| 2026-04-18 14:14 | 52.34383 | -50.63588 | 38000 ft | 466 kts | 248° |
| 2026-04-18 14:14 | 52.31933 | -50.73395 | 38000 ft | 466 kts | 248° |
| 2026-04-18 14:15 | 52.29470 | -50.83214 | 38000 ft | 466 kts | 248° |
| 2026-04-18 14:15 | 52.27005 | -50.92998 | 38000 ft | 466 kts | 248° |
| 2026-04-18 14:16 | 52.24526 | -51.02793 | 38000 ft | 466 kts | 248° |
| 2026-04-18 14:16 | 52.22059 | -51.12499 | 38000 ft | 466 kts | 248° |
| 2026-04-18 14:16 | 52.20880 | -51.17123 | 38000 ft | 0 kts | 248° |
| 2026-04-18 14:17 | 52.19746 | -51.21585 | 38176 ft | 463 kts | 248° |
| 2026-04-18 14:17 | 52.18519 | -51.26498 | 37799 ft | 474 kts | 248° |
| 2026-04-18 14:17 | 52.16067 | -51.36424 | 37208 ft | 468 kts | 248° |
| 2026-04-18 14:18 | 52.13672 | -51.46108 | 37317 ft | 458 kts | 248° |
| 2026-04-18 14:18 | 52.12480 | -51.50924 | 37338 ft | 460 kts | 248° |
| 2026-04-18 14:19 | 52.09035 | -51.65582 | 37368 ft | 466 kts | 250° |
| 2026-04-18 14:20 | 52.05773 | -51.80617 | 37359 ft | 473 kts | 251° |
| 2026-04-18 14:20 | 52.03687 | -51.90735 | 37368 ft | 477 kts | 252° |
| 2026-04-18 14:21 | 52.01660 | -52.01031 | 37364 ft | 481 kts | 253° |
| 2026-04-18 14:21 | 51.99704 | -52.11483 | 37384 ft | 485 kts | 253° |
| 2026-04-18 14:22 | 51.96949 | -52.27309 | 37394 ft | 486 kts | 255° |
| 2026-04-18 14:23 | 51.94440 | -52.43257 | 37412 ft | 486 kts | 256° |
| 2026-04-18 14:23 | 51.92216 | -52.59243 | 37424 ft | 486 kts | 258° |
| 2026-04-18 14:24 | 51.90289 | -52.75384 | 37441 ft | 486 kts | 260° |
| 2026-04-18 14:25 | 51.89191 | -52.86189 | 37446 ft | 486 kts | 261° |
| 2026-04-18 14:25 | 51.88254 | -52.97030 | 37467 ft | 486 kts | 263° |
| 2026-04-18 14:26 | 51.87489 | -53.07899 | 37473 ft | 486 kts | 264° |
| 2026-04-18 14:26 | 51.86911 | -53.18730 | 37481 ft | 486 kts | 266° |
| 2026-04-18 14:27 | 51.86525 | -53.29662 | 37490 ft | 486 kts | 268° |
| 2026-04-18 14:27 | 51.86349 | -53.40609 | 37500 ft | 486 kts | 269° |
| 2026-04-18 14:28 | 51.86397 | -53.51541 | 37508 ft | 486 kts | 271° |
| 2026-04-18 14:28 | 51.86682 | -53.62467 | 37520 ft | 486 kts | 274° |
| 2026-04-18 14:29 | 51.87222 | -53.73373 | 37530 ft | 486 kts | 276° |
| 2026-04-18 14:29 | 51.88033 | -53.84253 | 37540 ft | 486 kts | 278° |
| 2026-04-18 14:30 | 51.89120 | -53.94981 | 37553 ft | 486 kts | 281° |
| 2026-04-18 14:30 | 51.90526 | -54.05761 | 37560 ft | 486 kts | 283° |
| 2026-04-18 14:31 | 51.92232 | -54.16288 | 37570 ft | 486 kts | 286° |
| 2026-04-18 14:31 | 51.94283 | -54.26724 | 37578 ft | 486 kts | 289° |
| 2026-04-18 14:31 | 51.95201 | -54.31976 | 37799 ft | 481 kts | 277° |
| 2026-04-18 14:32 | 51.95305 | -54.37362 | 37978 ft | 473 kts | 264° |
| 2026-04-18 14:32 | 51.94724 | -54.42572 | 37999 ft | 468 kts | 253° |
| 2026-04-18 14:32 | 51.93610 | -54.47522 | 38000 ft | 466 kts | 245° |
| 2026-04-18 14:33 | 51.90096 | -54.56305 | 38000 ft | 467 kts | 228° |
| 2026-04-18 14:33 | 51.85596 | -54.63909 | 38000 ft | 468 kts | 225° |
| 2026-04-18 14:34 | 51.80950 | -54.71301 | 38000 ft | 468 kts | 225° |
| 2026-04-18 14:34 | 51.76341 | -54.78642 | 38000 ft | 468 kts | 225° |
| 2026-04-18 14:35 | 51.71722 | -54.86057 | 38000 ft | 468 kts | 225° |
| 2026-04-18 14:35 | 51.67106 | -54.93480 | 38000 ft | 468 kts | 225° |
| 2026-04-18 14:36 | 51.62492 | -55.00884 | 38000 ft | 468 kts | 225° |
| 2026-04-18 14:36 | 51.57858 | -55.08293 | 38000 ft | 468 kts | 225° |
| 2026-04-18 14:37 | 51.53254 | -55.15629 | 38000 ft | 468 kts | 225° |
| 2026-04-18 14:37 | 51.48623 | -55.22985 | 38000 ft | 468 kts | 225° |
| 2026-04-18 14:38 | 51.43977 | -55.30342 | 38000 ft | 468 kts | 225° |
| 2026-04-18 14:38 | 51.39336 | -55.37670 | 38000 ft | 468 kts | 225° |
| 2026-04-18 14:39 | 51.34689 | -55.44985 | 38000 ft | 468 kts | 225° |
| 2026-04-18 14:39 | 51.30045 | -55.52275 | 38000 ft | 468 kts | 224° |
| 2026-04-18 14:40 | 51.26174 | -55.58334 | 38000 ft | 468 kts | 224° |
| 2026-04-18 14:40 | 51.21520 | -55.65599 | 38000 ft | 468 kts | 224° |
| 2026-04-18 14:41 | 51.16856 | -55.72857 | 38000 ft | 468 kts | 224° |
| 2026-04-18 14:41 | 51.12188 | -55.80099 | 38000 ft | 469 kts | 224° |
| 2026-04-18 14:42 | 51.07509 | -55.87338 | 38000 ft | 469 kts | 224° |
| 2026-04-18 14:42 | 51.02832 | -55.94552 | 38000 ft | 469 kts | 224° |
| 2026-04-18 14:43 | 50.98150 | -56.01752 | 38000 ft | 469 kts | 224° |
| 2026-04-18 14:43 | 50.93456 | -56.08950 | 38000 ft | 469 kts | 224° |
| 2026-04-18 14:44 | 50.88764 | -56.16123 | 38000 ft | 469 kts | 224° |
| 2026-04-18 14:44 | 50.84099 | -56.23233 | 38000 ft | 468 kts | 224° |
| 2026-04-18 14:45 | 50.79397 | -56.30380 | 38000 ft | 469 kts | 224° |
| 2026-04-18 14:45 | 50.74685 | -56.37519 | 38000 ft | 470 kts | 224° |
| 2026-04-18 14:46 | 50.69960 | -56.44658 | 38000 ft | 470 kts | 224° |
| 2026-04-18 14:46 | 50.65225 | -56.51792 | 38000 ft | 471 kts | 224° |
| 2026-04-18 14:47 | 50.60482 | -56.58915 | 38000 ft | 471 kts | 224° |
| 2026-04-18 14:47 | 50.55736 | -56.66023 | 38000 ft | 471 kts | 224° |
| 2026-04-18 14:48 | 50.50985 | -56.73118 | 38000 ft | 471 kts | 224° |
| 2026-04-18 14:48 | 50.46234 | -56.80192 | 38000 ft | 471 kts | 224° |
| 2026-04-18 14:49 | 50.41473 | -56.87260 | 38000 ft | 471 kts | 223° |
| 2026-04-18 14:49 | 50.36699 | -56.94326 | 38000 ft | 472 kts | 223° |
| 2026-04-18 14:50 | 50.31921 | -57.01379 | 38000 ft | 472 kts | 223° |
| 2026-04-18 14:50 | 50.27141 | -57.08413 | 38000 ft | 472 kts | 223° |
| 2026-04-18 14:51 | 50.22353 | -57.15439 | 38000 ft | 472 kts | 223° |
| 2026-04-18 14:51 | 50.17560 | -57.22453 | 38000 ft | 472 kts | 223° |
| 2026-04-18 14:52 | 50.12762 | -57.29453 | 38000 ft | 472 kts | 223° |
| 2026-04-18 14:52 | 50.07964 | -57.36434 | 38000 ft | 471 kts | 223° |
| 2026-04-18 14:53 | 50.03172 | -57.43385 | 38000 ft | 471 kts | 223° |
| 2026-04-18 14:53 | 49.98365 | -57.50338 | 38002 ft | 472 kts | 223° |
| 2026-04-18 14:54 | 49.93556 | -57.57274 | 37999 ft | 471 kts | 223° |
| 2026-04-18 14:54 | 49.88750 | -57.64185 | 38001 ft | 471 kts | 223° |
| 2026-04-18 14:55 | 49.83973 | -57.71037 | 37999 ft | 469 kts | 223° |
| 2026-04-18 14:55 | 49.79173 | -57.77902 | 38000 ft | 469 kts | 223° |
| 2026-04-18 14:56 | 49.74472 | -57.84604 | 39175 ft | 468 kts | 227° |
| 2026-04-18 14:56 | 49.72071 | -57.88021 | 38963 ft | 470 kts | 230° |
| 2026-04-18 14:56 | 49.69665 | -57.91437 | 38672 ft | 467 kts | 230° |
| 2026-04-18 14:56 | 49.67279 | -57.94819 | 38429 ft | 463 kts | 230° |
| 2026-04-18 14:57 | 49.64939 | -57.98131 | 38383 ft | 461 kts | 230° |
| 2026-04-18 14:57 | 49.60181 | -58.04865 | 38409 ft | 462 kts | 230° |
| 2026-04-18 14:58 | 49.55463 | -58.11526 | 38425 ft | 462 kts | 230° |
| 2026-04-18 14:58 | 49.50714 | -58.18206 | 38414 ft | 462 kts | 230° |
| 2026-04-18 14:59 | 49.45961 | -58.24874 | 38407 ft | 462 kts | 230° |
| 2026-04-18 14:59 | 49.41205 | -58.31528 | 38418 ft | 463 kts | 229° |
| 2026-04-18 15:00 | 49.36465 | -58.38140 | 38422 ft | 463 kts | 229° |
| 2026-04-18 15:00 | 49.31698 | -58.44769 | 38421 ft | 463 kts | 229° |
| 2026-04-18 15:01 | 49.26925 | -58.51391 | 38417 ft | 463 kts | 229° |
| 2026-04-18 15:01 | 49.22145 | -58.58005 | 38421 ft | 463 kts | 229° |
| 2026-04-18 15:02 | 49.17359 | -58.64609 | 38423 ft | 463 kts | 229° |
| 2026-04-18 15:02 | 49.12564 | -58.71207 | 38424 ft | 463 kts | 229° |
| 2026-04-18 15:03 | 49.07774 | -58.77780 | 38424 ft | 463 kts | 229° |
| 2026-04-18 15:03 | 49.02977 | -58.84345 | 38426 ft | 463 kts | 229° |
| 2026-04-18 15:04 | 48.98210 | -58.90853 | 38430 ft | 463 kts | 229° |
| 2026-04-18 15:04 | 48.93410 | -58.97388 | 38428 ft | 463 kts | 229° |
| 2026-04-18 15:05 | 48.88597 | -59.03921 | 38435 ft | 464 kts | 228° |
| 2026-04-18 15:05 | 48.83780 | -59.10444 | 38432 ft | 464 kts | 228° |
| 2026-04-18 15:06 | 48.78948 | -59.16969 | 38431 ft | 464 kts | 228° |
| 2026-04-18 15:06 | 48.74151 | -59.23428 | 38407 ft | 464 kts | 228° |
| 2026-04-18 15:07 | 48.69308 | -59.29935 | 38431 ft | 466 kts | 227° |
| 2026-04-18 15:07 | 48.64444 | -59.36450 | 38437 ft | 466 kts | 227° |
| 2026-04-18 15:08 | 48.59582 | -59.42945 | 38435 ft | 466 kts | 227° |
| 2026-04-18 15:08 | 48.54718 | -59.49425 | 38432 ft | 466 kts | 227° |
| 2026-04-18 15:09 | 48.49838 | -59.55911 | 38433 ft | 468 kts | 227° |
| 2026-04-18 15:09 | 48.44953 | -59.62385 | 38433 ft | 468 kts | 227° |
| 2026-04-18 15:10 | 48.40093 | -59.68808 | 38434 ft | 468 kts | 227° |
| 2026-04-18 15:10 | 48.35198 | -59.75260 | 38436 ft | 468 kts | 227° |
| 2026-04-18 15:11 | 48.30296 | -59.81706 | 38432 ft | 468 kts | 226° |
| 2026-04-18 15:11 | 48.25381 | -59.88151 | 38435 ft | 468 kts | 226° |
| 2026-04-18 15:12 | 48.20469 | -59.94575 | 38408 ft | 468 kts | 226° |
| 2026-04-18 15:12 | 48.15571 | -60.00965 | 38437 ft | 469 kts | 226° |
| 2026-04-18 15:13 | 48.10648 | -60.07369 | 38432 ft | 469 kts | 226° |
| 2026-04-18 15:13 | 48.05711 | -60.13774 | 38433 ft | 469 kts | 226° |
| 2026-04-18 15:14 | 48.00779 | -60.20155 | 38433 ft | 469 kts | 225° |
| 2026-04-18 15:14 | 47.95839 | -60.26532 | 38436 ft | 470 kts | 225° |
| 2026-04-18 15:15 | 47.88412 | -60.36086 | 38430 ft | 470 kts | 225° |
| 2026-04-18 15:15 | 47.83455 | -60.42443 | 38429 ft | 470 kts | 225° |
| 2026-04-18 15:16 | 47.78488 | -60.48797 | 38434 ft | 472 kts | 225° |
| 2026-04-18 15:16 | 47.73536 | -60.55112 | 38430 ft | 472 kts | 225° |
| 2026-04-18 15:17 | 47.68552 | -60.61452 | 38427 ft | 471 kts | 225° |
| 2026-04-18 15:17 | 47.63561 | -60.67785 | 38427 ft | 472 kts | 225° |
| 2026-04-18 15:18 | 47.58588 | -60.74079 | 38425 ft | 472 kts | 225° |
| 2026-04-18 15:18 | 47.53578 | -60.80402 | 38425 ft | 472 kts | 225° |
| 2026-04-18 15:19 | 47.48569 | -60.86709 | 38419 ft | 472 kts | 225° |
| 2026-04-18 15:19 | 47.43573 | -60.92984 | 38425 ft | 474 kts | 224° |
| 2026-04-18 15:20 | 47.38535 | -60.99295 | 38425 ft | 475 kts | 224° |
| 2026-04-18 15:20 | 47.33492 | -61.05593 | 38420 ft | 475 kts | 224° |
| 2026-04-18 15:21 | 47.28444 | -61.11882 | 38416 ft | 475 kts | 224° |
| 2026-04-18 15:21 | 47.23421 | -61.18126 | 38417 ft | 475 kts | 224° |
| 2026-04-18 15:22 | 47.18342 | -61.24421 | 38414 ft | 475 kts | 224° |
| 2026-04-18 15:22 | 47.13289 | -61.30670 | 38409 ft | 475 kts | 224° |
| 2026-04-18 15:23 | 47.08251 | -61.36884 | 38411 ft | 477 kts | 224° |
| 2026-04-18 15:23 | 47.03160 | -61.43146 | 38411 ft | 477 kts | 224° |
| 2026-04-18 15:24 | 46.98076 | -61.49382 | 38392 ft | 477 kts | 224° |
| 2026-04-18 15:24 | 46.92973 | -61.55627 | 38394 ft | 478 kts | 224° |
| 2026-04-18 15:25 | 46.87856 | -61.61875 | 38415 ft | 479 kts | 224° |
| 2026-04-18 15:25 | 46.82763 | -61.68075 | 38387 ft | 479 kts | 224° |
| 2026-04-18 15:26 | 46.77640 | -61.74296 | 38393 ft | 479 kts | 224° |
| 2026-04-18 15:26 | 46.72492 | -61.80532 | 38387 ft | 481 kts | 224° |
| 2026-04-18 15:27 | 46.67345 | -61.86749 | 38389 ft | 481 kts | 224° |
| 2026-04-18 15:27 | 46.63065 | -61.91908 | 38368 ft | 481 kts | 223° |
| 2026-04-18 15:28 | 46.57063 | -61.99124 | 38383 ft | 481 kts | 223° |
| 2026-04-18 15:28 | 46.52739 | -62.04310 | 38380 ft | 481 kts | 223° |
| 2026-04-18 15:29 | 46.47568 | -62.10496 | 38379 ft | 481 kts | 223° |
| 2026-04-18 15:29 | 46.42432 | -62.16625 | 38383 ft | 481 kts | 223° |
| 2026-04-18 15:30 | 46.37249 | -62.22794 | 38384 ft | 482 kts | 223° |
| 2026-04-18 15:30 | 46.32071 | -62.28942 | 38384 ft | 482 kts | 223° |
| 2026-04-18 15:31 | 46.26881 | -62.35089 | 38380 ft | 482 kts | 223° |
| 2026-04-18 15:31 | 46.21690 | -62.41222 | 38382 ft | 483 kts | 223° |
| 2026-04-18 15:32 | 46.16474 | -62.47369 | 38379 ft | 483 kts | 223° |
| 2026-04-18 15:32 | 46.11269 | -62.53487 | 38366 ft | 483 kts | 222° |
| 2026-04-18 15:33 | 46.06090 | -62.59560 | 38374 ft | 483 kts | 222° |
| 2026-04-18 15:33 | 46.00867 | -62.65667 | 38373 ft | 483 kts | 222° |
| 2026-04-18 15:34 | 45.95638 | -62.71767 | 38373 ft | 483 kts | 222° |
| 2026-04-18 15:34 | 45.90411 | -62.77850 | 38373 ft | 484 kts | 222° |
| 2026-04-18 15:35 | 45.85191 | -62.83909 | 38376 ft | 485 kts | 222° |
| 2026-04-18 15:35 | 45.79943 | -62.89985 | 38370 ft | 485 kts | 222° |
| 2026-04-18 15:36 | 45.74693 | -62.96049 | 38355 ft | 485 kts | 221° |
| 2026-04-18 15:36 | 45.69438 | -63.02103 | 38360 ft | 485 kts | 221° |
| 2026-04-18 15:37 | 45.64175 | -63.08152 | 38361 ft | 485 kts | 221° |
| 2026-04-18 15:37 | 45.58905 | -63.14193 | 38351 ft | 485 kts | 221° |
| 2026-04-18 15:38 | 45.53658 | -63.20194 | 38340 ft | 485 kts | 221° |
| 2026-04-18 15:38 | 45.48375 | -63.26220 | 38334 ft | 485 kts | 221° |
| 2026-04-18 15:39 | 45.43103 | -63.32218 | 38316 ft | 485 kts | 221° |
| 2026-04-18 15:39 | 45.37822 | -63.38214 | 38323 ft | 485 kts | 221° |
| 2026-04-18 15:40 | 45.32537 | -63.44198 | 38318 ft | 485 kts | 221° |
| 2026-04-18 15:40 | 45.27252 | -63.50168 | 38315 ft | 485 kts | 221° |
| 2026-04-18 15:41 | 45.21955 | -63.56136 | 38312 ft | 486 kts | 221° |
| 2026-04-18 15:41 | 45.18981 | -63.59481 | 38316 ft | 486 kts | 221° |
| 2026-04-18 15:42 | 45.13672 | -63.65440 | 38305 ft | 486 kts | 221° |
| 2026-04-18 15:42 | 45.08353 | -63.71396 | 38316 ft | 486 kts | 221° |
| 2026-04-18 15:43 | 45.03074 | -63.77293 | 38314 ft | 487 kts | 221° |
| 2026-04-18 15:43 | 44.97754 | -63.83221 | 38318 ft | 487 kts | 221° |
| 2026-04-18 15:44 | 44.92436 | -63.89133 | 38311 ft | 487 kts | 220° |
| 2026-04-18 15:44 | 44.87110 | -63.95038 | 38319 ft | 486 kts | 220° |
| 2026-04-18 15:45 | 44.81791 | -64.00922 | 38318 ft | 486 kts | 220° |
| 2026-04-18 15:45 | 44.76472 | -64.06792 | 38315 ft | 486 kts | 220° |
| 2026-04-18 15:46 | 44.71147 | -64.12655 | 38316 ft | 486 kts | 220° |
| 2026-04-18 15:46 | 44.65857 | -64.18465 | 38317 ft | 486 kts | 220° |
| 2026-04-18 15:47 | 44.60525 | -64.24307 | 38320 ft | 486 kts | 220° |
| 2026-04-18 15:47 | 44.55189 | -64.30140 | 38316 ft | 486 kts | 220° |
| 2026-04-18 15:48 | 44.49843 | -64.35969 | 38318 ft | 486 kts | 220° |
| 2026-04-18 15:48 | 44.44491 | -64.41791 | 38320 ft | 486 kts | 220° |
| 2026-04-18 15:49 | 44.39140 | -64.47599 | 38321 ft | 487 kts | 220° |
| 2026-04-18 15:49 | 44.33817 | -64.53362 | 38324 ft | 487 kts | 220° |
| 2026-04-18 15:50 | 44.28449 | -64.59147 | 38325 ft | 487 kts | 220° |
| 2026-04-18 15:50 | 44.23066 | -64.64950 | 38327 ft | 489 kts | 220° |
| 2026-04-18 15:51 | 44.17671 | -64.70757 | 38322 ft | 489 kts | 220° |
| 2026-04-18 15:51 | 44.12303 | -64.76516 | 38324 ft | 489 kts | 220° |
| 2026-04-18 15:52 | 44.06903 | -64.82294 | 38327 ft | 489 kts | 219° |
| 2026-04-18 15:52 | 44.01499 | -64.88062 | 38324 ft | 489 kts | 219° |
| 2026-04-18 15:53 | 43.96093 | -64.93820 | 38320 ft | 490 kts | 219° |
| 2026-04-18 15:53 | 43.90679 | -64.99571 | 38329 ft | 490 kts | 219° |
| 2026-04-18 15:54 | 43.85269 | -65.05305 | 38328 ft | 490 kts | 219° |
| 2026-04-18 15:54 | 43.79887 | -65.10995 | 38309 ft | 489 kts | 219° |
| 2026-04-18 15:55 | 43.74472 | -65.16709 | 38318 ft | 490 kts | 219° |
| 2026-04-18 15:55 | 43.69045 | -65.22420 | 38303 ft | 490 kts | 219° |
| 2026-04-18 15:56 | 43.63607 | -65.28130 | 38281 ft | 490 kts | 219° |
| 2026-04-18 15:56 | 43.58179 | -65.33817 | 38291 ft | 490 kts | 219° |
| 2026-04-18 15:57 | 43.52738 | -65.39503 | 38287 ft | 490 kts | 219° |
| 2026-04-18 15:57 | 43.47327 | -65.45146 | 38277 ft | 490 kts | 219° |
| 2026-04-18 15:58 | 43.41879 | -65.50813 | 38264 ft | 491 kts | 219° |
| 2026-04-18 15:58 | 43.36406 | -65.56495 | 38263 ft | 493 kts | 219° |
| 2026-04-18 15:59 | 43.30925 | -65.62170 | 38258 ft | 493 kts | 218° |
| 2026-04-18 15:59 | 43.25445 | -65.67832 | 38252 ft | 493 kts | 219° |
| 2026-04-18 16:00 | 43.19952 | -65.73492 | 38247 ft | 494 kts | 219° |
| 2026-04-18 16:00 | 43.14451 | -65.79150 | 38248 ft | 494 kts | 219° |
| 2026-04-18 16:01 | 43.08994 | -65.84750 | 38242 ft | 494 kts | 218° |
| 2026-04-18 16:01 | 43.03492 | -65.90382 | 38237 ft | 493 kts | 219° |
| 2026-04-18 16:02 | 42.97990 | -65.96000 | 38228 ft | 494 kts | 219° |